createdAt,value
2022-10-28T00:00:37.029Z,101237.28
2022-10-28T00:03:03.642Z,101245.88
2022-10-28T00:05:34.273Z,101314.31
2022-10-28T00:08:00.864Z,101226.53
2022-10-28T00:10:27.381Z,101213.31
2022-10-28T00:12:53.994Z,101242.50
2022-10-28T00:15:20.632Z,101303.16
2022-10-28T00:17:47.247Z,101263.06
2022-10-28T00:20:15.726Z,101306.28
2022-10-28T00:22:43.570Z,101314.50
2022-10-28T00:25:10.578Z,101243.75
2022-10-28T00:27:37.097Z,101242.50
2022-10-28T00:30:03.918Z,101262.22
2022-10-28T00:32:31.569Z,101294.94
2022-10-28T00:34:58.274Z,101225.72
2022-10-28T00:37:26.633Z,101262.63
2022-10-28T00:39:53.251Z,101242.03
2022-10-28T00:42:22.311Z,101218.97
2022-10-28T00:45:00.413Z,101221.91
2022-10-28T00:48:02.298Z,101288.63
2022-10-28T00:50:45.182Z,101294.69
2022-10-28T00:53:21.081Z,101225.03
2022-10-28T00:55:49.488Z,101294.47
2022-10-28T00:58:17.562Z,101307.31
2022-10-28T01:00:44.491Z,101298.91
2022-10-28T01:03:11.126Z,101240.34
2022-10-28T01:05:41.435Z,101243.50
2022-10-28T01:08:08.461Z,101296.56
2022-10-28T01:11:17.192Z,101252.09
2022-10-28T01:13:46.636Z,101309.19
2022-10-28T01:16:22.136Z,101308.34
2022-10-28T01:19:00.808Z,101294.69
2022-10-28T01:21:47.974Z,101298.47
2022-10-28T01:24:43.621Z,101268.63
2022-10-28T01:27:33.307Z,101289.41
2022-10-28T01:30:08.926Z,101294.03
2022-10-28T01:32:54.318Z,101288.78
2022-10-28T01:35:54.231Z,101285.63
2022-10-28T01:38:49.726Z,101287.75
2022-10-28T01:41:29.054Z,101287.75
2022-10-28T01:44:13.681Z,101277.03
2022-10-28T01:46:47.786Z,101244.06
2022-10-28T01:49:22.048Z,101236.56
2022-10-28T01:51:53.572Z,101227.34
2022-10-28T01:54:24.779Z,101190.84
2022-10-28T01:56:55.348Z,101218.50
2022-10-28T01:59:30.642Z,101189.59
2022-10-28T02:01:57.793Z,101228.56
2022-10-28T02:04:26.350Z,101245.34
2022-10-28T02:06:58.452Z,101148.88
2022-10-28T02:09:31.993Z,101278.28
2022-10-28T02:12:26.717Z,101219.34
2022-10-28T02:15:17.457Z,101222.47
2022-10-28T02:18:14.784Z,101148.84
2022-10-28T02:20:54.243Z,101250.78
2022-10-28T02:23:24.662Z,101219.97
2022-10-28T02:26:12.493Z,101217.22
2022-10-28T02:29:02.646Z,101213.88
2022-10-28T02:31:45.945Z,101216.84
2022-10-28T02:34:18.498Z,101244.72
2022-10-28T02:36:50.150Z,101230.66
2022-10-28T02:39:21.746Z,101234.69
2022-10-28T02:42:00.395Z,101218.94
2022-10-28T02:44:31.445Z,101259.19
2022-10-28T02:47:02.240Z,101268.25
2022-10-28T02:49:33.440Z,101190.63
2022-10-28T02:52:04.424Z,101176.34
2022-10-28T02:54:47.664Z,101193.78
2022-10-28T02:57:18.278Z,101250.41
2022-10-28T02:59:52.896Z,101251.25
2022-10-28T03:02:19.426Z,101167.34
2022-10-28T03:04:46.064Z,101196.09
2022-10-28T03:07:12.582Z,101197.53
2022-10-28T03:09:39.629Z,101095.63
2022-10-28T03:12:06.636Z,101090.59
2022-10-28T03:14:33.133Z,101117.41
2022-10-28T03:16:59.590Z,101133.13
2022-10-28T03:19:26.074Z,101183.28
2022-10-28T03:21:53.006Z,101223.13
2022-10-28T03:24:22.546Z,101129.56
2022-10-28T03:26:48.846Z,101234.03
2022-10-28T03:29:15.356Z,101154.75
2022-10-28T03:31:42.056Z,101181.19
2022-10-28T03:34:08.606Z,101177.19
2022-10-28T03:36:35.077Z,101237.00
2022-10-28T03:39:01.738Z,101155.59
2022-10-28T03:41:28.316Z,101241.59
2022-10-28T03:43:55.066Z,101209.31
2022-10-28T03:46:21.897Z,101141.34
2022-10-28T03:48:48.599Z,101125.81
2022-10-28T03:51:15.410Z,101153.09
2022-10-28T03:53:42.058Z,101141.72
2022-10-28T03:56:08.813Z,101215.81
2022-10-28T03:58:38.780Z,101147.66
2022-10-28T04:01:07.761Z,101165.66
2022-10-28T04:03:34.338Z,101149.09
2022-10-28T04:06:00.902Z,101169.81
2022-10-28T04:08:27.441Z,101174.03
2022-10-28T04:10:53.921Z,101167.97
2022-10-28T04:13:20.397Z,101170.69
2022-10-28T04:15:46.918Z,101153.06
2022-10-28T04:18:13.573Z,101113.84
2022-10-28T04:20:40.289Z,101137.78
2022-10-28T04:23:06.863Z,101139.69
2022-10-28T04:25:33.388Z,101159.59
2022-10-28T04:28:03.797Z,101171.13
2022-10-28T04:30:31.982Z,101130.91
2022-10-28T04:32:58.571Z,101194.63
2022-10-28T04:35:25.606Z,101116.03
2022-10-28T04:37:52.545Z,101142.22
2022-10-28T04:40:19.945Z,101147.06
2022-10-28T04:42:46.726Z,101092.94
2022-10-28T04:45:15.684Z,101132.16
2022-10-28T04:47:44.349Z,101108.47
2022-10-28T04:50:11.995Z,101167.41
2022-10-28T04:52:38.478Z,101140.13
2022-10-28T04:55:05.472Z,101152.28
2022-10-28T04:57:33.090Z,101178.94
2022-10-28T04:59:59.827Z,101119.38
2022-10-28T05:02:26.572Z,101060.00
2022-10-28T05:04:53.509Z,101157.53
2022-10-28T05:07:22.856Z,101099.22
2022-10-28T05:09:53.595Z,101102.38
2022-10-28T05:12:20.168Z,101218.97
2022-10-28T05:14:48.980Z,101152.06
2022-10-28T05:17:17.924Z,101183.72
2022-10-28T05:19:45.219Z,101135.06
2022-10-28T05:22:11.827Z,101107.41
2022-10-28T05:24:38.330Z,101169.91
2022-10-28T05:27:04.880Z,101176.00
2022-10-28T05:29:33.419Z,101176.00
2022-10-28T05:32:00.593Z,101176.81
2022-10-28T05:34:27.047Z,101214.81
2022-10-28T05:36:53.519Z,101172.84
2022-10-28T05:39:20.030Z,101215.63
2022-10-28T05:41:46.496Z,101205.59
2022-10-28T05:44:12.947Z,101198.63
2022-10-28T05:46:39.405Z,101203.88
2022-10-28T05:49:05.880Z,101199.28
2022-10-28T05:51:32.311Z,101172.84
2022-10-28T05:53:58.750Z,101212.06
2022-10-28T05:56:25.727Z,101221.50
2022-10-28T05:58:52.517Z,101190.03
2022-10-28T06:01:19.169Z,101214.41
2022-10-28T06:03:45.720Z,101237.25
2022-10-28T06:06:12.189Z,101208.09
2022-10-28T06:08:38.652Z,101222.34
2022-10-28T06:11:03.603Z,101174.97
2022-10-28T06:13:30.089Z,101206.41
2022-10-28T06:15:56.551Z,101213.94
2022-10-28T06:18:23.177Z,101233.69
2022-10-28T06:20:54.023Z,101234.31
2022-10-28T06:23:21.158Z,101221.50
2022-10-28T06:25:48.011Z,101232.41
2022-10-28T06:28:14.835Z,101200.94
2022-10-28T06:30:41.370Z,101224.44
2022-10-28T06:33:08.855Z,101229.47
2022-10-28T06:35:35.264Z,101242.72
2022-10-28T06:38:04.831Z,101225.28
2022-10-28T06:40:34.984Z,101197.19
2022-10-28T06:43:03.946Z,101248.59
2022-10-28T06:45:32.310Z,101254.06
2022-10-28T06:48:04.273Z,101246.50
2022-10-28T06:50:31.603Z,101251.75
2022-10-28T06:52:58.231Z,101259.50
2022-10-28T06:55:25.822Z,101258.25
2022-10-28T06:57:52.711Z,101253.41
2022-10-28T07:00:19.633Z,101257.59
2022-10-28T07:02:50.979Z,101210.34
2022-10-28T07:05:17.423Z,101221.91
2022-10-28T07:07:44.062Z,101247.09
2022-10-28T07:10:10.468Z,101270.00
2022-10-28T07:12:37.337Z,101251.53
2022-10-28T07:15:04.439Z,101246.50
2022-10-28T07:17:30.952Z,101203.84
2022-10-28T07:19:57.421Z,101260.97
2022-10-28T07:22:25.757Z,101211.00
2022-10-28T07:24:52.376Z,101251.53
2022-10-28T07:27:20.944Z,101177.84
2022-10-28T07:29:47.404Z,101248.97
2022-10-28T07:32:13.895Z,101248.38
2022-10-28T07:34:40.342Z,101268.91
2022-10-28T07:37:06.836Z,101247.31
2022-10-28T07:39:33.455Z,101242.53
2022-10-28T07:42:01.320Z,101211.44
2022-10-28T07:44:27.816Z,101266.63
2022-10-28T07:46:57.225Z,101254.03
2022-10-28T07:49:24.776Z,101270.81
2022-10-28T07:59:47.833Z,101264.81
2022-10-28T08:02:34.596Z,101278.88
2022-10-28T08:05:02.319Z,101286.81
2022-10-28T08:07:31.698Z,101264.97
2022-10-28T08:10:00.208Z,101223.00
2022-10-28T08:12:28.182Z,101259.88
2022-10-28T08:14:56.158Z,101243.91
2022-10-28T08:17:25.628Z,101285.03
2022-10-28T08:19:52.231Z,101226.47
2022-10-28T08:22:21.098Z,101254.16
2022-10-28T08:24:49.802Z,101246.78
2022-10-28T08:27:16.337Z,101229.16
2022-10-28T08:29:42.859Z,101233.56
2022-10-28T08:32:09.360Z,101210.28
2022-10-28T08:34:38.055Z,101231.88
2022-10-28T08:37:07.452Z,101266.06
2022-10-28T08:39:34.032Z,101199.56
2022-10-28T08:42:15.780Z,101266.03
2022-10-28T08:45:03.297Z,101271.88
2022-10-28T08:48:07.559Z,101254.00
2022-10-28T08:50:59.375Z,101220.63
2022-10-28T08:53:31.770Z,101198.84
2022-10-28T08:56:09.420Z,101192.53
2022-10-28T08:58:39.026Z,101200.47
2022-10-28T09:01:09.016Z,101262.72
2022-10-28T09:03:43.624Z,101261.03
2022-10-28T09:06:11.078Z,101216.22
2022-10-28T09:08:41.500Z,101236.94
2022-10-28T09:11:10.857Z,101255.38
2022-10-28T09:14:02.480Z,101253.28
2022-10-28T09:17:08.251Z,101251.53
2022-10-28T09:19:39.891Z,101257.41
2022-10-28T09:22:23.043Z,101217.56
2022-10-28T09:25:01.692Z,101259.44
2022-10-28T09:27:46.508Z,101256.03
2022-10-28T09:30:28.706Z,101216.19
2022-10-28T09:33:26.100Z,101260.63
2022-10-28T09:35:53.965Z,101266.91
2022-10-28T09:38:39.205Z,101267.53
2022-10-28T09:41:16.051Z,101252.22
2022-10-28T09:43:57.115Z,101248.63
2022-10-28T09:46:28.785Z,101236.22
2022-10-28T09:49:02.921Z,101270.16
2022-10-28T09:51:35.372Z,101263.81
2022-10-28T09:54:02.287Z,101257.81
2022-10-28T09:56:30.360Z,101241.91
2022-10-28T09:59:02.909Z,101263.53
2022-10-28T10:01:37.798Z,101263.47
2022-10-28T10:04:18.364Z,101262.63
2022-10-28T10:06:47.133Z,101265.41
2022-10-28T10:09:23.704Z,101267.81
2022-10-28T10:11:53.773Z,101248.63
2022-10-28T10:14:27.979Z,101266.69
2022-10-28T10:17:02.687Z,101256.97
2022-10-28T10:19:50.562Z,101229.88
2022-10-28T10:22:32.974Z,101267.47
2022-10-28T10:24:59.651Z,101255.13
2022-10-28T10:27:28.682Z,101260.28
2022-10-28T10:29:55.860Z,101238.16
2022-10-28T10:32:46.507Z,101255.72
2022-10-28T10:35:12.933Z,101256.34
2022-10-28T10:37:44.943Z,101215.94
2022-10-28T10:40:33.677Z,101245.97
2022-10-28T10:43:18.851Z,101256.03
2022-10-28T10:45:52.914Z,101254.78
2022-10-28T10:48:19.367Z,101208.22
2022-10-28T10:50:49.527Z,101191.28
2022-10-28T10:53:35.532Z,101242.06
2022-10-28T10:56:05.207Z,101194.66
2022-10-28T10:58:37.259Z,101238.41
2022-10-28T11:01:07.252Z,101237.72
2022-10-28T11:03:38.627Z,101189.19
2022-10-28T11:06:24.278Z,101233.47
2022-10-28T11:08:58.953Z,101173.94
2022-10-28T11:11:33.400Z,101140.19
2022-10-28T11:14:26.062Z,101228.94
2022-10-28T11:17:01.153Z,101218.88
2022-10-28T11:19:36.518Z,101222.31
2022-10-28T11:22:23.968Z,101212.53
2022-10-28T11:25:00.960Z,101212.41
2022-10-28T11:27:45.601Z,101175.25
2022-10-28T11:30:19.763Z,101200.78
2022-10-28T11:33:28.688Z,101200.44
2022-10-28T11:36:08.275Z,101183.34
2022-10-28T11:38:55.151Z,101187.19
2022-10-28T11:41:40.217Z,101149.69
2022-10-28T11:44:27.915Z,101169.03
2022-10-28T11:47:09.657Z,101191.97
2022-10-28T11:49:59.063Z,101173.56
2022-10-28T11:52:33.887Z,101195.38
2022-10-28T11:55:17.807Z,101171.69
2022-10-28T11:58:28.872Z,101186.91
2022-10-28T12:01:05.440Z,101180.91
2022-10-28T12:03:59.558Z,101173.56
2022-10-28T12:06:50.350Z,101170.34
2022-10-28T12:09:33.004Z,101158.88
2022-10-28T12:12:30.354Z,101176.75
2022-10-28T12:15:21.455Z,101169.09
2022-10-28T12:17:57.160Z,101133.56
2022-10-28T12:20:30.374Z,101145.06
2022-10-28T12:23:00.364Z,101127.03
2022-10-28T12:25:31.015Z,101131.38
2022-10-28T12:28:02.919Z,101092.97
2022-10-28T12:30:33.225Z,101159.84
2022-10-28T12:33:17.188Z,101136.00
2022-10-28T12:35:54.540Z,101145.50
2022-10-28T12:39:05.936Z,101149.44
2022-10-28T12:41:59.386Z,101152.78
2022-10-28T12:44:28.277Z,101127.41
2022-10-28T12:47:00.190Z,101155.47
2022-10-28T12:49:48.032Z,101150.31
2022-10-28T12:52:33.009Z,101159.81
2022-10-28T12:55:07.241Z,101154.47
2022-10-28T12:57:35.341Z,101154.31
2022-10-28T13:00:31.765Z,101147.94
2022-10-28T13:03:07.504Z,101155.72
2022-10-28T13:05:55.794Z,101158.22
2022-10-28T13:08:32.126Z,101143.13
2022-10-28T13:11:10.659Z,101158.97
2022-10-28T13:14:04.821Z,101127.25
2022-10-28T13:16:52.503Z,101164.56
2022-10-28T13:19:41.191Z,101145.03
2022-10-28T13:22:30.267Z,101153.06
2022-10-28T13:25:20.158Z,101151.13
2022-10-28T13:27:47.201Z,101098.41
2022-10-28T13:30:19.432Z,101118.94
2022-10-28T13:32:46.089Z,101145.13
2022-10-28T13:35:23.804Z,101129.91
2022-10-28T13:37:53.119Z,101150.78
2022-10-28T13:40:21.253Z,101175.75
2022-10-28T13:42:49.291Z,101176.81
2022-10-28T13:45:44.625Z,101173.50
2022-10-28T13:48:29.211Z,101177.75
2022-10-28T13:51:25.153Z,101179.66
2022-10-28T13:53:57.893Z,101181.50
2022-10-28T13:56:26.916Z,101185.50
2022-10-28T13:59:02.917Z,101180.00
2022-10-28T14:01:36.831Z,101180.78
2022-10-28T14:04:04.644Z,101181.16
2022-10-28T14:06:33.395Z,101149.94
2022-10-28T14:09:00.019Z,101158.44
2022-10-28T14:11:32.360Z,101143.91
2022-10-28T14:14:03.954Z,101123.03
2022-10-28T14:16:36.494Z,101140.38
2022-10-28T14:19:08.845Z,101190.13
2022-10-28T14:21:48.217Z,101195.03
2022-10-28T14:24:31.568Z,101146.72
2022-10-28T14:27:31.423Z,101213.25
2022-10-28T14:29:58.307Z,101219.13
2022-10-28T14:32:30.969Z,101214.63
2022-10-28T14:35:14.437Z,101180.03
2022-10-28T14:38:15.028Z,101212.75
2022-10-28T14:41:19.953Z,101203.56
2022-10-28T14:44:04.770Z,101219.44
2022-10-28T14:46:52.915Z,101230.19
2022-10-28T14:49:29.885Z,101235.94
2022-10-28T14:51:57.760Z,101236.94
2022-10-28T14:54:39.683Z,101240.31
2022-10-28T14:57:07.872Z,101208.78
2022-10-28T14:59:40.413Z,101237.34
2022-10-28T15:02:21.762Z,101239.25
2022-10-28T15:05:00.391Z,101239.78
2022-10-28T15:07:26.994Z,101227.97
2022-10-28T15:09:55.361Z,101233.69
2022-10-28T15:12:26.119Z,101211.47
2022-10-28T15:14:55.779Z,101216.97
2022-10-28T15:17:27.725Z,101214.00
2022-10-28T15:19:56.348Z,101263.31
2022-10-28T15:22:32.095Z,101270.63
2022-10-28T15:25:00.860Z,101247.34
2022-10-28T15:27:31.227Z,101249.97
2022-10-28T15:29:57.901Z,101255.59
2022-10-28T15:32:32.876Z,101281.41
2022-10-28T15:34:59.781Z,101213.63
2022-10-28T15:37:29.833Z,101267.38
2022-10-28T15:40:12.574Z,101296.81
2022-10-28T15:42:44.446Z,101270.13
2022-10-28T15:45:20.588Z,101285.31
2022-10-28T15:47:48.556Z,101300.09
2022-10-28T15:50:14.992Z,101309.41
2022-10-28T15:52:57.101Z,101310.97
2022-10-28T15:55:41.476Z,101318.78
2022-10-28T15:58:19.427Z,101312.94
2022-10-28T16:00:55.927Z,101315.94
2022-10-28T16:03:40.460Z,101259.81
2022-10-28T16:06:21.277Z,101277.41
2022-10-28T16:08:48.631Z,101256.09
2022-10-28T16:11:20.113Z,101294.22
2022-10-28T16:13:49.201Z,101297.09
2022-10-28T16:16:25.560Z,101342.03
2022-10-28T16:19:07.626Z,101338.09
2022-10-28T16:21:34.711Z,101270.69
2022-10-28T16:24:02.579Z,101301.56
2022-10-28T16:26:31.467Z,101332.38
2022-10-28T16:28:57.909Z,101264.56
2022-10-28T16:31:28.232Z,101309.84
2022-10-28T16:33:54.657Z,101336.75
2022-10-28T16:36:21.146Z,101308.97
2022-10-28T16:38:47.612Z,101308.34
2022-10-28T16:41:19.180Z,101340.25
2022-10-28T16:43:46.349Z,101340.25
2022-10-28T16:46:13.758Z,101310.56
2022-10-28T16:48:40.963Z,101353.41
2022-10-28T16:51:14.731Z,101353.63
2022-10-28T16:53:46.741Z,101343.09
2022-10-28T16:56:17.263Z,101332.28
2022-10-28T16:58:44.089Z,101319.22
2022-10-28T17:01:11.353Z,101342.19
2022-10-28T17:03:37.951Z,101348.06
2022-10-28T17:06:04.699Z,101356.66
2022-10-28T17:08:57.065Z,101331.72
2022-10-28T17:11:17.632Z,101329.66
2022-10-28T17:13:44.204Z,101356.53
2022-10-28T17:16:10.745Z,101326.91
2022-10-28T17:18:37.222Z,101330.56
2022-10-28T17:21:03.724Z,101345.75
2022-10-28T17:23:30.761Z,101299.03
2022-10-28T17:26:01.712Z,101352.06
2022-10-28T17:28:28.536Z,101351.78
2022-10-28T17:31:01.842Z,101341.16
2022-10-28T17:33:28.272Z,101316.91
2022-10-28T17:35:54.708Z,101365.63
2022-10-28T17:38:21.118Z,101360.59
2022-10-28T17:40:56.839Z,101332.91
2022-10-28T17:43:23.767Z,101333.00
2022-10-28T17:45:50.896Z,101370.94
2022-10-28T17:48:17.343Z,101323.81
2022-10-28T17:50:45.069Z,101381.56
2022-10-28T17:53:11.775Z,101390.25
2022-10-28T17:55:38.383Z,101376.75
2022-10-28T17:58:04.904Z,101378.28
2022-10-28T18:00:31.359Z,101372.25
2022-10-28T18:02:57.929Z,101383.41
2022-10-28T18:05:24.513Z,101381.69
2022-10-28T18:07:54.480Z,101362.25
2022-10-28T18:10:21.305Z,101366.22
2022-10-28T18:12:50.861Z,101356.59
2022-10-28T18:15:17.215Z,101406.81
2022-10-28T18:17:43.702Z,101398.44
2022-10-28T18:20:10.383Z,101384.56
2022-10-28T18:22:36.833Z,101406.16
2022-10-28T18:25:03.453Z,101389.59
2022-10-28T18:27:29.988Z,101398.78
2022-10-28T18:29:56.433Z,101393.34
2022-10-28T18:32:23.917Z,101395.06
2022-10-28T18:34:50.468Z,101418.25
2022-10-28T18:37:17.025Z,101393.50
2022-10-28T18:39:43.486Z,101407.16
2022-10-28T18:42:12.316Z,101392.72
2022-10-28T18:44:39.121Z,101386.47
2022-10-28T18:47:06.512Z,101382.25
2022-10-28T18:49:33.000Z,101403.28
2022-10-28T18:51:59.627Z,101386.94
2022-10-28T18:54:26.064Z,101371.25
2022-10-28T18:56:56.555Z,101400.91
2022-10-28T18:59:24.199Z,101395.09
2022-10-28T19:01:50.691Z,101387.16
2022-10-28T19:04:17.250Z,101425.38
2022-10-28T19:06:43.759Z,101417.41
2022-10-28T19:09:10.209Z,101418.72
2022-10-28T19:11:36.707Z,101444.09
2022-10-28T19:14:05.307Z,101439.06
2022-10-28T19:16:33.655Z,101395.16
2022-10-28T19:19:01.889Z,101445.34
2022-10-28T19:21:28.448Z,101425.38
2022-10-28T19:23:55.444Z,101448.50
2022-10-28T19:26:22.980Z,101449.78
2022-10-28T19:28:50.174Z,101450.84
2022-10-28T19:31:19.339Z,101446.19
2022-10-28T19:33:46.077Z,101421.47
2022-10-28T19:36:19.569Z,101447.34
2022-10-28T19:38:47.911Z,101445.25
2022-10-28T19:41:16.988Z,101407.47
2022-10-28T19:43:44.731Z,101421.72
2022-10-28T19:46:16.303Z,101434.50
2022-10-28T19:48:45.610Z,101446.72
2022-10-28T19:51:20.909Z,101463.31
2022-10-28T19:53:48.765Z,101430.31
2022-10-28T19:56:18.972Z,101471.47
2022-10-28T19:58:46.860Z,101444.00
2022-10-28T20:01:14.300Z,101447.75
2022-10-28T20:03:44.985Z,101500.53
2022-10-28T20:06:15.580Z,101499.50
2022-10-28T20:08:44.193Z,101471.75
2022-10-28T20:11:13.903Z,101440.25
2022-10-28T20:13:43.859Z,101433.16
2022-10-28T20:16:13.085Z,101481.03
2022-10-28T20:18:40.176Z,101474.75
2022-10-28T20:21:07.879Z,101441.78
2022-10-28T20:23:35.627Z,101525.59
2022-10-28T20:26:03.728Z,101532.78
2022-10-28T20:28:31.407Z,101496.66
2022-10-28T20:31:02.854Z,101478.97
2022-10-28T20:33:30.764Z,101432.16
2022-10-28T20:35:58.127Z,101469.09
2022-10-28T20:38:25.547Z,101463.00
2022-10-28T20:40:55.067Z,101428.16
2022-10-28T20:43:22.333Z,101512.75
2022-10-28T20:45:59.806Z,101518.88
2022-10-28T20:48:30.799Z,101499.59
2022-10-28T20:50:59.196Z,101496.09
2022-10-28T20:53:27.537Z,101524.22
2022-10-28T20:55:55.583Z,101465.81
2022-10-28T20:58:25.082Z,101438.69
2022-10-28T21:00:53.352Z,101548.88
2022-10-28T21:03:21.040Z,101460.56
2022-10-28T21:05:47.942Z,101476.53
2022-10-28T21:08:14.457Z,101520.06
2022-10-28T21:10:41.001Z,101481.19
2022-10-28T21:13:07.666Z,101501.16
2022-10-28T21:15:36.494Z,101546.72
2022-10-28T21:18:05.299Z,101507.03
2022-10-28T21:20:32.133Z,101551.59
2022-10-28T21:22:59.692Z,101500.53
2022-10-28T21:25:26.802Z,101518.59
2022-10-28T21:27:53.400Z,101509.34
2022-10-28T21:30:19.880Z,101511.03
2022-10-28T21:32:46.494Z,101515.66
2022-10-28T21:35:12.978Z,101555.19
2022-10-28T21:37:39.470Z,101553.94
2022-10-28T21:40:06.535Z,101534.00
2022-10-28T21:42:32.996Z,101528.13
2022-10-28T21:44:59.473Z,101512.94
2022-10-28T21:47:27.396Z,101501.38
2022-10-28T21:49:53.968Z,101541.34
2022-10-28T21:52:20.493Z,101507.69
2022-10-28T21:54:47.041Z,101521.78
2022-10-28T21:57:13.535Z,101482.66
2022-10-28T21:59:40.021Z,101488.75
2022-10-28T22:02:06.649Z,101501.00
2022-10-28T22:04:33.476Z,101487.94
2022-10-28T22:06:59.933Z,101531.47
2022-10-28T22:09:26.377Z,101529.16
2022-10-28T22:11:52.789Z,101544.50
2022-10-28T22:14:19.317Z,101501.38
2022-10-28T22:16:45.833Z,101521.78
2022-10-28T22:19:14.564Z,101548.06
2022-10-28T22:21:41.036Z,101485.81
2022-10-28T22:24:08.021Z,101543.66
2022-10-28T22:26:34.777Z,101533.34
2022-10-28T22:29:01.304Z,101524.94
2022-10-28T22:31:31.379Z,101532.75
2022-10-28T22:33:58.589Z,101552.50
2022-10-28T22:36:27.464Z,101524.31
2022-10-28T22:38:54.347Z,101563.81
2022-10-28T22:41:26.064Z,101540.50
2022-10-28T22:43:57.952Z,101508.31
2022-10-28T22:46:26.327Z,101529.34
2022-10-28T22:48:53.629Z,101525.72
2022-10-28T22:51:20.765Z,101564.44
2022-10-28T22:53:47.597Z,101536.25
2022-10-28T22:56:20.550Z,101547.63
2022-10-28T22:59:07.820Z,101537.50
2022-10-28T23:01:34.704Z,101558.13
2022-10-28T23:04:01.913Z,101540.84
2022-10-28T23:06:28.432Z,101510.97
2022-10-28T23:08:55.023Z,101561.47
2022-10-28T23:11:22.439Z,101547.63
2022-10-28T23:13:53.798Z,101540.91
2022-10-28T23:16:21.282Z,101557.75
2022-10-28T23:18:48.716Z,101536.69
2022-10-28T23:21:15.108Z,101566.59
2022-10-28T23:23:42.494Z,101523.03
2022-10-28T23:26:10.589Z,101531.03
2022-10-28T23:28:38.643Z,101561.97
2022-10-28T23:31:06.399Z,101544.69
2022-10-28T23:33:34.710Z,101522.59
2022-10-28T23:36:06.156Z,101543.00
2022-10-28T23:38:32.790Z,101485.31
2022-10-28T23:41:05.120Z,101496.19
2022-10-28T23:43:32.726Z,101517.72
2022-10-28T23:46:00.304Z,101536.25
2022-10-28T23:48:28.292Z,101559.41
2022-10-28T23:50:55.530Z,101532.25
2022-10-28T23:53:23.469Z,101529.94
2022-10-28T23:55:51.429Z,101541.72
2022-10-28T23:58:19.740Z,101544.47
